createdAt,value
2022-09-06T00:00:18.596Z,43.54
2022-09-06T00:02:45.651Z,43.46
2022-09-06T00:05:13.557Z,43.63
2022-09-06T00:07:41.301Z,43.65
2022-09-06T00:10:08.975Z,43.56
2022-09-06T00:12:36.058Z,43.43
2022-09-06T00:15:04.855Z,43.59
2022-09-06T00:17:32.599Z,43.55
2022-09-06T00:19:59.656Z,43.64
2022-09-06T00:22:26.746Z,43.59
2022-09-06T00:24:53.668Z,43.46
2022-09-06T00:27:21.245Z,43.44
2022-09-06T00:29:48.181Z,43.37
2022-09-06T00:32:15.232Z,43.36
2022-09-06T00:34:42.491Z,43.25
2022-09-06T00:37:09.454Z,43.25
2022-09-06T00:39:36.638Z,43.35
2022-09-06T00:42:10.483Z,43.20
2022-09-06T00:44:37.989Z,43.07
2022-09-06T00:47:05.754Z,43.08
2022-09-06T00:49:39.599Z,43.02
2022-09-06T00:52:08.369Z,42.92
2022-09-06T00:54:35.222Z,42.97
2022-09-06T00:57:02.271Z,42.95
2022-09-06T00:59:30.955Z,43.06
2022-09-06T01:01:58.333Z,43.04
2022-09-06T01:04:25.614Z,43.19
2022-09-06T01:06:57.962Z,43.18
2022-09-06T01:09:32.800Z,43.16
2022-09-06T01:12:18.901Z,43.35
2022-09-06T01:15:12.894Z,43.30
2022-09-06T01:18:20.211Z,43.18
2022-09-06T01:20:56.456Z,43.24
2022-09-06T01:23:45.015Z,43.20
2022-09-06T01:26:25.111Z,43.20
2022-09-06T01:28:52.133Z,43.19
2022-09-06T01:31:32.298Z,43.23
2022-09-06T01:34:08.572Z,43.11
2022-09-06T01:37:08.390Z,43.26
2022-09-06T01:39:36.691Z,43.30
2022-09-06T01:42:18.619Z,43.46
2022-09-06T01:44:58.346Z,43.49
2022-09-06T01:47:45.464Z,43.54
2022-09-06T01:50:52.662Z,43.48
2022-09-06T01:54:14.090Z,43.48
2022-09-06T01:57:28.352Z,43.56
2022-09-06T02:00:09.440Z,43.49
2022-09-06T02:02:42.490Z,43.65
2022-09-06T02:05:13.492Z,43.60
2022-09-06T02:07:40.544Z,43.55
2022-09-06T02:10:09.696Z,43.51
2022-09-06T02:12:38.412Z,43.59
2022-09-06T02:15:07.359Z,43.51
2022-09-06T02:17:38.087Z,43.47
2022-09-06T02:20:09.897Z,43.56
2022-09-06T02:22:41.944Z,43.42
2022-09-06T02:25:10.449Z,43.47
2022-09-06T02:27:37.989Z,43.61
2022-09-06T02:30:06.474Z,43.53
2022-09-06T02:32:37.527Z,43.50
2022-09-06T02:35:09.570Z,43.63
2022-09-06T02:37:36.550Z,43.58
2022-09-06T02:40:04.372Z,43.70
2022-09-06T02:42:31.476Z,43.64
2022-09-06T02:44:58.425Z,43.69
2022-09-06T02:47:25.383Z,43.76
2022-09-06T02:49:52.336Z,43.82
2022-09-06T02:52:19.395Z,43.68
2022-09-06T02:54:46.649Z,43.93
2022-09-06T02:57:13.711Z,43.99
2022-09-06T02:59:41.172Z,43.90
2022-09-06T03:02:08.303Z,43.93
2022-09-06T03:04:35.391Z,44.00
2022-09-06T03:07:02.346Z,44.15
2022-09-06T03:09:29.496Z,44.10
2022-09-06T03:11:57.161Z,44.45
2022-09-06T03:14:24.616Z,44.29
2022-09-06T03:16:52.015Z,44.43
2022-09-06T03:19:20.358Z,44.37
2022-09-06T03:21:47.403Z,44.28
2022-09-06T03:24:14.350Z,44.57
2022-09-06T03:26:41.812Z,44.61
2022-09-06T03:29:09.172Z,44.63
2022-09-06T03:31:36.122Z,44.76
2022-09-06T03:34:05.322Z,44.72
2022-09-06T03:36:34.312Z,44.68
2022-09-06T03:39:01.260Z,44.82
2022-09-06T03:41:28.209Z,44.57
2022-09-06T03:43:55.192Z,44.66
2022-09-06T03:46:22.297Z,44.62
2022-09-06T03:48:50.274Z,44.72
2022-09-06T03:51:17.322Z,44.93
2022-09-06T03:53:44.579Z,45.00
2022-09-06T03:56:11.620Z,45.08
2022-09-06T03:58:38.670Z,45.07
2022-09-06T04:01:09.875Z,45.19
2022-09-06T04:03:37.482Z,45.23
2022-09-06T04:06:05.150Z,45.46
2022-09-06T04:08:32.147Z,45.22
2022-09-06T04:10:59.443Z,45.30
2022-09-06T04:13:27.541Z,45.26
2022-09-06T04:15:55.138Z,45.29
2022-09-06T04:18:22.486Z,45.18
2022-09-06T04:20:50.578Z,45.13
2022-09-06T04:23:17.855Z,45.13
2022-09-06T04:25:52.241Z,45.23
2022-09-06T04:28:19.399Z,45.01
2022-09-06T04:30:51.979Z,45.06
2022-09-06T04:33:18.935Z,45.14
2022-09-06T04:35:50.184Z,45.19
2022-09-06T04:38:17.355Z,45.28
2022-09-06T04:40:44.309Z,45.14
2022-09-06T04:43:14.649Z,45.06
2022-09-06T04:45:42.859Z,45.19
2022-09-06T04:48:09.868Z,45.07
2022-09-06T04:50:37.438Z,45.11
2022-09-06T04:53:05.397Z,45.19
2022-09-06T04:55:34.132Z,45.06
2022-09-06T04:58:01.549Z,44.90
2022-09-06T05:00:28.900Z,44.91
2022-09-06T05:02:55.844Z,44.84
2022-09-06T05:05:23.404Z,44.77
2022-09-06T05:07:54.652Z,44.87
2022-09-06T05:10:22.829Z,44.78
2022-09-06T05:12:50.593Z,44.72
2022-09-06T05:15:18.155Z,44.64
2022-09-06T05:17:45.611Z,44.60
2022-09-06T05:20:13.486Z,44.62
2022-09-06T05:22:40.738Z,44.51
2022-09-06T05:25:09.080Z,44.30
2022-09-06T05:27:36.371Z,44.35
2022-09-06T05:30:04.704Z,44.29
2022-09-06T05:32:32.293Z,44.27
2022-09-06T05:35:00.091Z,44.09
2022-09-06T05:37:27.225Z,44.01
2022-09-06T05:39:54.555Z,44.00
2022-09-06T05:42:21.734Z,43.96
2022-09-06T05:44:48.686Z,43.93
2022-09-06T05:47:15.970Z,43.85
2022-09-06T05:49:44.155Z,43.73
2022-09-06T05:52:11.184Z,43.42
2022-09-06T05:54:38.858Z,43.33
2022-09-06T05:57:06.117Z,43.27
2022-09-06T05:59:33.170Z,43.27
2022-09-06T06:02:04.362Z,43.11
2022-09-06T06:04:34.768Z,43.02
2022-09-06T06:07:02.948Z,42.90
2022-09-06T06:09:31.031Z,42.69
2022-09-06T06:11:58.489Z,42.69
2022-09-06T06:14:26.578Z,42.31
2022-09-06T06:16:53.738Z,42.17
2022-09-06T06:19:20.709Z,42.10
2022-09-06T06:21:47.532Z,41.51
2022-09-06T06:24:14.644Z,41.06
2022-09-06T06:26:41.634Z,41.04
2022-09-06T06:29:09.913Z,41.12
2022-09-06T06:31:39.414Z,41.31
2022-09-06T06:34:07.484Z,41.23
2022-09-06T06:36:35.841Z,40.80
2022-09-06T06:39:04.513Z,40.61
2022-09-06T06:41:32.217Z,40.26
2022-09-06T06:44:03.729Z,39.79
2022-09-06T06:46:35.985Z,39.47
2022-09-06T06:49:03.000Z,39.37
2022-09-06T06:51:31.792Z,39.33
2022-09-06T06:53:58.790Z,39.09
2022-09-06T06:56:30.485Z,39.19
2022-09-06T06:58:59.282Z,38.80
2022-09-06T07:01:27.040Z,38.82
2022-09-06T07:03:54.735Z,38.74
2022-09-06T07:06:22.395Z,38.51
2022-09-06T07:09:09.757Z,38.35
2022-09-06T07:11:38.637Z,37.88
2022-09-06T07:14:05.674Z,37.83
2022-09-06T07:16:32.706Z,37.50
2022-09-06T07:19:00.639Z,37.48
2022-09-06T07:21:43.142Z,37.06
2022-09-06T07:24:10.659Z,37.11
2022-09-06T07:26:39.006Z,37.05
2022-09-06T07:29:07.483Z,36.89
2022-09-06T07:34:22.461Z,36.51
2022-09-06T07:36:56.008Z,36.21
2022-09-06T07:39:23.225Z,35.88
2022-09-06T07:41:50.405Z,36.01
2022-09-06T07:44:21.550Z,35.43
2022-09-06T07:46:48.720Z,34.63
2022-09-06T07:49:15.846Z,34.91
2022-09-06T07:51:42.790Z,34.94
2022-09-06T07:56:56.857Z,34.79
2022-09-06T07:59:23.940Z,34.90
2022-09-06T08:01:53.422Z,34.40
2022-09-06T08:04:20.457Z,34.33
2022-09-06T08:09:36.259Z,33.63
2022-09-06T08:12:07.055Z,33.93
2022-09-06T08:14:35.778Z,33.67
2022-09-06T08:17:03.851Z,33.83
2022-09-06T08:19:31.202Z,32.97
2022-09-06T08:21:58.149Z,32.04
2022-09-06T08:24:25.093Z,32.46
2022-09-06T08:26:53.202Z,32.47
2022-09-06T08:29:20.314Z,32.72
2022-09-06T08:31:47.470Z,31.48
2022-09-06T08:34:15.426Z,30.50
2022-09-06T08:36:42.800Z,30.31
2022-09-06T08:39:10.410Z,30.75
2022-09-06T08:41:46.012Z,31.12
2022-09-06T08:47:15.547Z,31.90
2022-09-06T08:49:47.461Z,31.66
2022-09-06T08:52:44.960Z,31.47
2022-09-06T08:55:31.582Z,31.67
2022-09-06T08:58:35.816Z,31.31
2022-09-06T09:01:13.660Z,30.75
2022-09-06T09:03:40.669Z,30.64
2022-09-06T09:06:09.471Z,30.84
2022-09-06T09:08:36.928Z,30.58
2022-09-06T09:11:06.571Z,30.11
2022-09-06T09:13:39.630Z,30.12
2022-09-06T09:16:06.939Z,30.76
2022-09-06T09:18:35.954Z,30.35
2022-09-06T09:21:02.930Z,29.22
2022-09-06T09:23:31.242Z,29.02
2022-09-06T09:26:14.542Z,28.35
2022-09-06T09:29:12.920Z,28.99
2022-09-06T09:31:40.009Z,28.71
2022-09-06T09:34:11.525Z,28.69
2022-09-06T09:36:38.916Z,29.48
2022-09-06T09:39:10.842Z,29.34
2022-09-06T09:41:39.841Z,29.74
2022-09-06T09:44:10.199Z,29.73
2022-09-06T09:46:37.440Z,29.49
2022-09-06T09:49:10.503Z,29.82
2022-09-06T09:51:48.194Z,29.91
2022-09-06T09:54:29.994Z,30.17
2022-09-06T09:56:56.862Z,30.06
2022-09-06T09:59:54.216Z,29.64
2022-09-06T10:02:34.526Z,28.97
2022-09-06T10:05:18.185Z,28.28
2022-09-06T10:07:51.615Z,28.14
2022-09-06T10:10:30.202Z,27.49
2022-09-06T10:13:29.837Z,28.24
2022-09-06T10:16:00.733Z,28.41
2022-09-06T10:18:37.690Z,28.70
2022-09-06T10:21:06.773Z,28.12
2022-09-06T10:26:49.995Z,27.15
2022-09-06T10:29:34.983Z,27.73
2022-09-06T10:32:08.764Z,27.34
2022-09-06T10:34:44.822Z,27.02
2022-09-06T10:37:21.198Z,27.04
2022-09-06T10:40:08.306Z,25.78
2022-09-06T10:42:43.649Z,26.64
2022-09-06T10:45:17.098Z,27.22
2022-09-06T10:47:47.881Z,27.64
2022-09-06T10:50:15.338Z,27.45
2022-09-06T10:52:44.297Z,27.07
2022-09-06T10:55:14.118Z,27.42
2022-09-06T11:00:46.851Z,25.71
2022-09-06T11:06:08.700Z,25.63
2022-09-06T11:08:58.149Z,26.31
2022-09-06T11:11:48.764Z,26.34
2022-09-06T11:14:16.224Z,26.74
2022-09-06T11:16:50.019Z,27.06
2022-09-06T11:19:22.919Z,27.29
2022-09-06T11:22:28.474Z,26.65
2022-09-06T11:25:29.627Z,26.71
2022-09-06T11:27:58.359Z,26.93
2022-09-06T11:30:25.882Z,26.70
2022-09-06T11:33:20.587Z,26.76
2022-09-06T11:35:47.534Z,27.10
2022-09-06T11:38:14.579Z,27.56
2022-09-06T11:40:44.571Z,27.07
2022-09-06T11:43:17.673Z,27.30
2022-09-06T11:45:51.331Z,27.09
2022-09-06T11:48:25.528Z,26.57
2022-09-06T11:50:58.935Z,27.19
2022-09-06T11:53:27.928Z,26.49
2022-09-06T11:56:01.127Z,27.04
2022-09-06T11:58:31.143Z,26.79
2022-09-06T12:01:14.172Z,26.80
2022-09-06T12:06:43.074Z,27.24
2022-09-06T12:09:47.193Z,27.42
2022-09-06T12:12:41.591Z,27.56
2022-09-06T12:15:25.900Z,27.64
2022-09-06T12:17:53.412Z,27.51
2022-09-06T12:20:48.520Z,27.23
2022-09-06T12:23:37.292Z,27.12
2022-09-06T12:26:10.078Z,27.42
2022-09-06T12:28:54.081Z,27.25
2022-09-06T12:31:33.497Z,27.20
2022-09-06T12:34:06.058Z,27.13
2022-09-06T12:36:32.937Z,27.08
2022-09-06T12:39:09.782Z,27.21
2022-09-06T12:41:43.107Z,27.29
2022-09-06T12:44:11.264Z,27.35
2022-09-06T12:46:40.126Z,27.09
2022-09-06T12:49:09.296Z,26.32
2022-09-06T12:51:38.159Z,26.43
2022-09-06T12:54:22.517Z,25.88
2022-09-06T12:56:49.976Z,25.51
2022-09-06T12:59:25.245Z,25.34
2022-09-06T13:02:05.893Z,24.79
2022-09-06T13:04:43.081Z,25.38
2022-09-06T13:07:13.318Z,25.50
2022-09-06T13:09:42.127Z,26.13
2022-09-06T13:12:19.287Z,26.24
2022-09-06T13:14:46.338Z,26.16
2022-09-06T13:17:26.292Z,26.00
2022-09-06T13:19:53.379Z,26.09
2022-09-06T13:22:42.213Z,26.26
2022-09-06T13:25:35.963Z,26.10
2022-09-06T13:28:03.757Z,25.83
2022-09-06T13:30:36.440Z,25.45
2022-09-06T13:33:04.414Z,25.36
2022-09-06T13:35:34.751Z,25.43
2022-09-06T13:38:21.044Z,25.52
2022-09-06T13:41:15.886Z,25.46
2022-09-06T13:43:45.309Z,24.93
2022-09-06T13:46:12.426Z,24.49
2022-09-06T13:48:40.005Z,24.65
2022-09-06T13:51:08.086Z,24.48
2022-09-06T13:53:35.399Z,24.86
2022-09-06T13:56:03.363Z,25.15
2022-09-06T13:58:31.637Z,25.15
2022-09-06T14:00:58.844Z,25.29
2022-09-06T14:03:28.778Z,25.22
2022-09-06T14:05:56.582Z,25.11
2022-09-06T14:08:23.679Z,25.12
2022-09-06T14:10:51.430Z,25.42
2022-09-06T14:13:18.861Z,25.64
2022-09-06T14:15:47.470Z,25.61
2022-09-06T14:18:14.803Z,25.60
2022-09-06T14:20:42.119Z,25.63
2022-09-06T14:23:09.610Z,25.35
2022-09-06T14:25:38.173Z,25.46
2022-09-06T14:28:06.018Z,25.59
2022-09-06T14:30:33.514Z,25.85
2022-09-06T14:33:00.974Z,25.94
2022-09-06T14:35:28.633Z,25.90
2022-09-06T14:37:55.516Z,25.94
2022-09-06T14:40:22.422Z,25.92
2022-09-06T14:42:50.630Z,25.89
2022-09-06T14:45:18.773Z,25.65
2022-09-06T14:47:46.223Z,25.68
2022-09-06T14:50:13.477Z,25.70
2022-09-06T14:52:40.424Z,25.71
2022-09-06T14:55:07.799Z,25.86
2022-09-06T14:57:35.549Z,25.95
2022-09-06T15:00:06.258Z,25.92
2022-09-06T15:02:33.277Z,26.06
2022-09-06T15:05:00.367Z,26.28
2022-09-06T15:07:29.053Z,26.12
2022-09-06T15:09:56.407Z,26.06
2022-09-06T15:12:23.486Z,26.04
2022-09-06T15:14:50.499Z,26.03
2022-09-06T15:17:17.550Z,25.66
2022-09-06T15:19:46.067Z,25.65
2022-09-06T15:22:13.498Z,25.85
2022-09-06T15:24:40.857Z,25.77
2022-09-06T15:27:07.807Z,25.90
2022-09-06T15:29:34.753Z,26.01
2022-09-06T15:32:02.114Z,25.96
2022-09-06T15:34:29.776Z,25.97
2022-09-06T15:36:57.242Z,26.04
2022-09-06T15:39:24.344Z,26.04
2022-09-06T15:41:51.900Z,26.17
2022-09-06T15:44:19.725Z,26.27
2022-09-06T15:46:58.274Z,26.36
2022-09-06T15:49:33.918Z,26.49
2022-09-06T15:52:03.149Z,26.42
2022-09-06T15:54:48.726Z,26.55
2022-09-06T15:57:16.724Z,26.69
2022-09-06T15:59:44.433Z,26.66
2022-09-06T16:02:11.959Z,26.75
2022-09-06T16:04:39.123Z,27.10
2022-09-06T16:07:06.961Z,27.20
2022-09-06T16:09:33.872Z,27.46
2022-09-06T16:12:00.839Z,27.66
2022-09-06T16:14:29.165Z,27.85
2022-09-06T16:16:57.549Z,27.82
2022-09-06T16:19:26.239Z,27.85
2022-09-06T16:21:53.242Z,27.90
2022-09-06T16:24:21.576Z,28.10
2022-09-06T16:26:48.686Z,28.48
2022-09-06T16:29:16.697Z,28.48
2022-09-06T16:31:43.912Z,28.48
2022-09-06T16:34:11.830Z,28.48
2022-09-06T16:36:38.953Z,28.44
2022-09-06T16:39:06.486Z,28.52
2022-09-06T16:41:41.255Z,28.72
2022-09-06T16:44:09.235Z,28.81
2022-09-06T16:46:36.398Z,28.93
2022-09-06T16:49:04.666Z,29.05
2022-09-06T16:51:31.840Z,29.16
2022-09-06T16:53:59.612Z,29.19
2022-09-06T16:56:28.650Z,29.32
2022-09-06T16:58:57.106Z,29.48
2022-09-06T17:01:27.826Z,29.64
2022-09-06T17:03:56.134Z,29.57
2022-09-06T17:06:24.275Z,29.62
2022-09-06T17:08:52.198Z,29.65
2022-09-06T17:11:20.673Z,29.77
2022-09-06T17:13:49.588Z,29.82
2022-09-06T17:16:35.730Z,29.85
2022-09-06T17:19:02.751Z,29.99
2022-09-06T17:21:29.909Z,30.00
2022-09-06T17:23:58.808Z,30.20
2022-09-06T17:26:25.770Z,30.13
2022-09-06T17:28:52.721Z,30.24
2022-09-06T17:31:25.520Z,30.26
2022-09-06T17:33:53.633Z,30.25
2022-09-06T17:36:25.581Z,30.39
2022-09-06T17:38:54.117Z,30.60
2022-09-06T17:41:22.378Z,30.53
2022-09-06T17:43:50.744Z,30.60
2022-09-06T17:46:18.293Z,30.73
2022-09-06T17:48:45.716Z,30.85
2022-09-06T17:51:13.196Z,31.01
2022-09-06T17:53:41.483Z,30.96
2022-09-06T17:56:10.579Z,31.08
2022-09-06T17:58:37.599Z,31.11
2022-09-06T18:01:11.430Z,31.29
2022-09-06T18:03:42.338Z,31.29
2022-09-06T18:06:11.110Z,31.30
2022-09-06T18:08:40.570Z,31.45
2022-09-06T18:11:12.503Z,31.38
2022-09-06T18:13:40.080Z,31.45
2022-09-06T18:16:07.058Z,31.42
2022-09-06T18:18:34.543Z,31.52
2022-09-06T18:21:02.789Z,31.50
2022-09-06T18:23:30.978Z,31.50
2022-09-06T18:25:59.369Z,31.58
2022-09-06T18:28:28.041Z,31.56
2022-09-06T18:31:10.578Z,31.63
2022-09-06T18:33:38.429Z,31.67
2022-09-06T18:36:07.718Z,31.70
2022-09-06T18:38:35.042Z,31.87
2022-09-06T18:41:03.462Z,31.81
2022-09-06T18:43:32.634Z,31.75
2022-09-06T18:46:03.604Z,31.79
2022-09-06T18:48:34.629Z,31.84
2022-09-06T18:51:11.624Z,31.88
2022-09-06T18:53:42.708Z,31.88
2022-09-06T18:56:12.468Z,31.93
2022-09-06T18:58:39.682Z,31.96
2022-09-06T19:01:08.870Z,32.03
2022-09-06T19:03:36.719Z,32.21
2022-09-06T19:06:15.266Z,32.07
2022-09-06T19:08:42.500Z,32.27
2022-09-06T19:11:17.379Z,32.25
2022-09-06T19:13:45.243Z,32.39
2022-09-06T19:16:13.322Z,32.27
2022-09-06T19:18:40.655Z,32.31
2022-09-06T19:21:12.514Z,32.41
2022-09-06T19:23:41.107Z,32.50
2022-09-06T19:26:10.359Z,32.44
2022-09-06T19:28:38.202Z,32.57
2022-09-06T19:31:16.103Z,32.53
2022-09-06T19:33:43.855Z,32.47
2022-09-06T19:36:12.350Z,32.59
2022-09-06T19:38:59.596Z,32.55
2022-09-06T19:41:35.379Z,32.58
2022-09-06T19:44:05.872Z,32.58
2022-09-06T19:46:36.723Z,32.63
2022-09-06T19:49:08.373Z,32.68
2022-09-06T19:51:36.521Z,32.65
2022-09-06T19:54:03.792Z,32.72
2022-09-06T19:56:33.627Z,32.67
2022-09-06T19:59:02.758Z,32.73
2022-09-06T20:01:31.284Z,32.78
2022-09-06T20:03:58.923Z,32.75
2022-09-06T20:06:27.074Z,32.88
2022-09-06T20:08:55.565Z,32.97
2022-09-06T20:11:23.965Z,32.88
2022-09-06T20:13:51.007Z,32.96
2022-09-06T20:16:20.628Z,33.07
2022-09-06T20:18:48.718Z,32.98
2022-09-06T20:21:17.899Z,33.07
2022-09-06T20:23:50.869Z,33.03
2022-09-06T20:26:18.356Z,33.05
2022-09-06T20:28:46.291Z,33.11
2022-09-06T20:31:16.346Z,33.18
2022-09-06T20:33:48.766Z,33.18
2022-09-06T20:36:17.213Z,33.23
2022-09-06T20:38:45.805Z,33.29
2022-09-06T20:41:20.072Z,33.45
2022-09-06T20:43:51.439Z,33.56
2022-09-06T20:46:19.900Z,33.52
2022-09-06T20:48:47.013Z,33.78
2022-09-06T20:51:19.009Z,33.95
2022-09-06T20:53:53.100Z,34.09
2022-09-06T20:56:24.978Z,34.34
2022-09-06T20:58:56.703Z,34.37
2022-09-06T21:01:25.209Z,34.43
2022-09-06T21:03:57.799Z,34.52
2022-09-06T21:06:26.089Z,34.58
2022-09-06T21:08:53.237Z,34.53
2022-09-06T21:11:21.655Z,34.59
2022-09-06T21:13:52.670Z,34.63
2022-09-06T21:16:24.226Z,34.70
2022-09-06T21:18:52.362Z,34.80
2022-09-06T21:21:19.359Z,34.83
2022-09-06T21:23:46.309Z,34.96
2022-09-06T21:26:13.361Z,35.10
2022-09-06T21:28:40.826Z,35.21
2022-09-06T21:31:09.064Z,35.40
2022-09-06T21:33:36.769Z,35.58
2022-09-06T21:36:07.143Z,35.56
2022-09-06T21:38:34.868Z,35.62
2022-09-06T21:41:02.433Z,35.61
2022-09-06T21:43:30.716Z,35.62
2022-09-06T21:46:08.015Z,35.60
2022-09-06T21:48:38.959Z,35.57
2022-09-06T21:51:09.903Z,35.62
2022-09-06T21:53:36.951Z,35.72
2022-09-06T21:56:04.774Z,35.75
2022-09-06T21:58:31.880Z,35.77
2022-09-06T22:00:59.525Z,35.86
2022-09-06T22:03:27.456Z,35.95
2022-09-06T22:05:55.506Z,36.02
2022-09-06T22:08:22.965Z,36.00
2022-09-06T22:10:50.017Z,36.06
2022-09-06T22:13:17.275Z,36.10
2022-09-06T22:15:44.767Z,36.11
2022-09-06T22:18:11.999Z,36.23
2022-09-06T22:20:39.135Z,36.26
2022-09-06T22:23:07.064Z,36.31
2022-09-06T22:25:34.085Z,36.56
2022-09-06T22:28:01.555Z,36.63
2022-09-06T22:30:29.028Z,36.62
2022-09-06T22:32:57.091Z,36.63
2022-09-06T22:35:24.043Z,36.69
2022-09-06T22:37:50.999Z,36.64
2022-09-06T22:40:17.846Z,36.69
2022-09-06T22:42:44.695Z,36.56
2022-09-06T22:45:11.644Z,36.60
2022-09-06T22:47:38.597Z,36.46
2022-09-06T22:50:06.750Z,36.46
2022-09-06T22:52:33.729Z,36.59
2022-09-06T22:55:00.614Z,36.57
2022-09-06T22:57:27.537Z,36.47
2022-09-06T22:59:54.582Z,36.57
2022-09-06T23:02:21.639Z,36.55
2022-09-06T23:04:48.861Z,36.65
2022-09-06T23:07:16.005Z,36.55
2022-09-06T23:09:43.110Z,36.72
2022-09-06T23:12:10.082Z,36.71
2022-09-06T23:14:37.121Z,36.83
2022-09-06T23:17:04.100Z,36.81
2022-09-06T23:19:31.020Z,36.70
2022-09-06T23:21:58.180Z,36.80
2022-09-06T23:24:27.108Z,36.83
2022-09-06T23:26:55.152Z,36.91
2022-09-06T23:29:22.198Z,36.88
2022-09-06T23:31:49.200Z,37.06
2022-09-06T23:34:16.611Z,36.95
2022-09-06T23:36:44.074Z,37.07
2022-09-06T23:39:11.838Z,37.07
2022-09-06T23:41:38.723Z,37.14
2022-09-06T23:44:05.637Z,37.20
2022-09-06T23:46:33.857Z,37.23
2022-09-06T23:49:00.974Z,37.30
2022-09-06T23:51:27.929Z,37.29
2022-09-06T23:53:54.876Z,37.27
2022-09-06T23:56:22.642Z,37.33
2022-09-06T23:58:49.590Z,37.24
